ASD weather

Andros Town Airport
Nicholls Town and Berry Islands, Bahamas

Public forecast

Using degrees Celsius for public forecast. Weather courtesy of forecast.io.

METAR (pilot weather report)

Closest report is Lynden Pindling International Airport, 27.2 nm (50.4 km) NE. Retrieved 2019/08/22 08:00 UTC (54 minutes ago):

MYNN 220800Z 10006KT 9999 FEW020 SCT040 26/24 A2999

TAF (pilot weather forecast)

Forecast is more than 12 hours old.

Closest forecast is Lynden Pindling International Airport, 27.2 nm (50.4 km) NE. Retrieved 2019/08/21 00:21 UTC (1 day ago):

TAF MYNN 212300Z 2200/2224 11008KT 9999 VCSH FEW018CB SCT020 BKN100 FM221000 12008KT 8000 SHRA FEW015CB BKN018 BKN080 PROB30 TEMPO 2218/2224 13015G25KT 4800 TSRA SCT014CB BKN016 OVC080